Low Gap, Arkansas
Current Conditions -  °F | °C
As of 9:53 AM on Sunday 21 Dec 2014 (Local Time) from KHRO Reporting Station
Overcast Overcast  
Wind Chill: 32°   Ceiling: 2900
Heat Index: 39°   Visibility: 8mi
Dew Point: 37°   Wind: 12mph
Humidity: 93%   Direction: 160°SSE
Pressure: 30.13"   Gusts: NA
Location:  36.0047°N, 93.218°W
Report Text: KHRO 211553Z AUTO 16010KT 8SM OVC029 04/03 A3013 RMK AO2 SLP208 T00390028 $
Loading
Personal Weather Stations






























Interactive Weather Map New forecast layout! Learn more

10-Day Weather Forecast

Advertisements
Track Severe Weather on mobile